This is the latest recevied weather packets stored in our database for station/object EA1IRT-1. If no packets are shown the sender has not sent any weather packets the latest 10 day(s).
| Time | Temp. | Humidity | Pressure | Rain* | Wind** | Luminosity | Snow |
|---|---|---|---|---|---|---|---|
| 1777993615 | 18.89° C | 64% | 1015.5 hPa | - | - | - | - |
| 1777992715 | 18.89° C | 64% | 1015.4 hPa | - | - | - | - |
| 1777991814 | 18.89° C | 63% | 1015.5 hPa | - | - | - | - |
| 1777990914 | 18.89° C | 64% | 1015.5 hPa | - | - | - | - |
| 1777990014 | 18.33° C | 62% | 1015.4 hPa | - | - | - | - |
| 1777989114 | 18.89° C | 61% | 1015.2 hPa | - | - | - | - |
| 1777988214 | 18.33° C | 62% | 1015.3 hPa | - | - | - | - |
| 1777987289 | 19.44° C | 63% | 1015.3 hPa | - | - | - | - |
| 1777986365 | 19.44° C | 62% | 1015.2 hPa | - | - | - | - |
| 1777985465 | 19.44° C | 65% | 1015.1 hPa | - | - | - | - |
| 1777984565 | 18.33° C | 66% | 1015.2 hPa | - | - | - | - |
| 1777983665 | 19.44° C | 60% | 1015.2 hPa | - | - | - | - |
| 1777982764 | 19.44° C | 62% | 1015.2 hPa | - | - | - | - |
| 1777981864 | 17.78° C | 67% | 1015.2 hPa | - | - | - | - |
| 1777980964 | 15.56° C | 76% | 1015.2 hPa | - | - | - | - |
| 1777980064 | 16.67° C | 69% | 1015.2 hPa | - | - | - | - |
| 1777979164 | 18.89° C | 60% | 1015.1 hPa | - | - | - | - |
| 1777978264 | 17.78° C | 61% | 1015.2 hPa | - | - | - | - |
| 1777977364 | 19.44° C | 57% | 1015.1 hPa | - | - | - | - |
| 1777976439 | 19.44° C | 60% | 1015.1 hPa | - | - | - | - |
| 1777975515 | 18.33° C | 64% | 1015.2 hPa | - | - | - | - |
| 1777974615 | 17.22° C | 72% | 1015.2 hPa | - | - | - | - |
| 1777973715 | 16.11° C | 72% | 1015.1 hPa | - | - | - | - |
| 1777972821 | 16.11° C | 78% | 1015.2 hPa | - | - | - | - |
| 1777971921 | 14.44° C | 84% | 1015.3 hPa | - | - | - | - |
* Rain since midnight (hover to see other rain measurements)
** Current wind speed in m/s (hover to see current wind gust speed)